createdAt,value
2022-08-23T00:01:25.158Z,100530.91
2022-08-23T00:03:55.362Z,100530.59
2022-08-23T00:06:25.074Z,100531.41
2022-08-23T00:08:54.284Z,100539.88
2022-08-23T00:11:27.397Z,100533.59
2022-08-23T00:13:55.522Z,100539.16
2022-08-23T00:16:25.101Z,100529.41
2022-08-23T00:18:53.121Z,100527.00
2022-08-23T00:21:21.048Z,100525.44
2022-08-23T00:23:48.854Z,100530.31
2022-08-23T00:26:16.397Z,100526.88
2022-08-23T00:28:44.183Z,100518.19
2022-08-23T00:31:25.132Z,100515.19
2022-08-23T00:33:54.508Z,100514.22
2022-08-23T00:36:23.406Z,100520.94
2022-08-23T00:38:51.219Z,100516.88
2022-08-23T00:41:21.231Z,100510.25
2022-08-23T00:44:06.737Z,100509.91
2022-08-23T00:47:02.586Z,100512.69
2022-08-23T00:49:36.263Z,100502.63
2022-08-23T00:52:12.080Z,100503.97
2022-08-23T00:54:42.985Z,100512.00
2022-08-23T00:57:14.325Z,100506.75
2022-08-23T00:59:43.007Z,100512.31
2022-08-23T01:02:13.625Z,100513.84
2022-08-23T01:04:49.435Z,100521.97
2022-08-23T01:07:27.350Z,100518.25
2022-08-23T01:10:01.059Z,100512.25
2022-08-23T01:12:35.864Z,100521.63
2022-08-23T01:15:07.876Z,100523.16
2022-08-23T01:17:41.577Z,100512.59
2022-08-23T01:20:15.897Z,100513.94
2022-08-23T01:22:58.450Z,100516.72
2022-08-23T01:25:30.134Z,100519.19
2022-08-23T01:27:59.424Z,100520.25
2022-08-23T01:30:31.442Z,100517.06
2022-08-23T01:33:03.267Z,100532.44
2022-08-23T01:35:37.481Z,100533.25
2022-08-23T01:38:05.986Z,100530.53
2022-08-23T01:40:35.823Z,100530.47
2022-08-23T01:43:04.106Z,100518.94
2022-08-23T01:45:33.607Z,100517.38
2022-08-23T01:48:02.664Z,100525.97
2022-08-23T01:50:30.960Z,100526.78
2022-08-23T01:52:59.599Z,100521.13
2022-08-23T01:55:28.066Z,100526.94
2022-08-23T01:58:02.065Z,100524.97
2022-08-23T02:00:32.883Z,100538.25
2022-08-23T02:03:02.584Z,100539.50
2022-08-23T02:05:30.597Z,100530.63
2022-08-23T02:08:19.116Z,100547.94
2022-08-23T02:10:46.922Z,100537.78
2022-08-23T02:13:15.830Z,100536.94
2022-08-23T02:15:44.844Z,100537.19
2022-08-23T02:18:13.459Z,100530.84
2022-08-23T02:20:45.363Z,100534.41
2022-08-23T02:23:13.667Z,100533.94
2022-08-23T02:25:41.686Z,100539.03
2022-08-23T02:28:09.997Z,100541.00
2022-08-23T02:30:40.020Z,100534.53
2022-08-23T02:33:08.317Z,100536.72
2022-08-23T02:38:21.595Z,100540.41
2022-08-23T02:40:52.987Z,100538.59
2022-08-23T02:43:28.715Z,100543.66
2022-08-23T02:45:57.923Z,100543.13
2022-08-23T02:48:25.533Z,100544.00
2022-08-23T02:50:53.446Z,100548.97
2022-08-23T02:53:21.046Z,100544.81
2022-08-23T02:55:49.165Z,100549.88
2022-08-23T02:58:16.978Z,100546.09
2022-08-23T03:00:47.796Z,100544.72
2022-08-23T03:03:18.316Z,100557.97
2022-08-23T03:05:46.612Z,100550.69
2022-08-23T03:08:15.623Z,100553.34
2022-08-23T03:10:44.436Z,100550.47
2022-08-23T03:13:12.749Z,100552.88
2022-08-23T03:15:41.057Z,100552.06
2022-08-23T03:18:11.120Z,100551.38
2022-08-23T03:20:41.472Z,100550.38
2022-08-23T03:23:09.297Z,100551.25
2022-08-23T03:25:37.791Z,100553.00
2022-08-23T03:28:09.315Z,100550.38
2022-08-23T03:30:37.471Z,100544.59
2022-08-23T03:33:06.082Z,100546.22
2022-08-23T03:35:33.795Z,100554.72
2022-08-23T03:38:03.085Z,100545.97
2022-08-23T03:40:30.914Z,100549.75
2022-08-23T03:42:58.755Z,100550.53
2022-08-23T03:45:26.338Z,100564.78
2022-08-23T03:47:54.148Z,100562.84
2022-08-23T03:50:22.262Z,100567.56
2022-08-23T03:52:50.270Z,100570.78
2022-08-23T03:55:19.881Z,100574.03
2022-08-23T03:57:48.994Z,100575.84
2022-08-23T04:00:20.382Z,100570.06
2022-08-23T04:02:48.540Z,100567.59
2022-08-23T04:05:16.134Z,100575.59
2022-08-23T04:07:43.938Z,100581.38
2022-08-23T04:10:14.962Z,100581.84
2022-08-23T04:12:44.562Z,100583.78
2022-08-23T04:15:13.493Z,100588.78
2022-08-23T04:17:42.580Z,100584.38
2022-08-23T04:20:11.094Z,100585.03
2022-08-23T04:22:38.905Z,100587.56
2022-08-23T04:25:14.097Z,100590.38
2022-08-23T04:27:56.628Z,100593.34
2022-08-23T04:30:24.366Z,100590.00
2022-08-23T04:32:53.454Z,100601.72
2022-08-23T04:35:22.377Z,100600.94
2022-08-23T04:37:50.077Z,100605.72
2022-08-23T04:40:36.086Z,100608.81
2022-08-23T04:43:05.295Z,100612.03
2022-08-23T04:45:33.509Z,100608.63
2022-08-23T04:48:01.509Z,100608.09
2022-08-23T04:50:29.429Z,100609.66
2022-08-23T04:52:57.341Z,100616.38
2022-08-23T04:55:24.958Z,100615.31
2022-08-23T04:57:52.665Z,100618.88
2022-08-23T05:00:22.480Z,100616.94
2022-08-23T05:02:55.585Z,100630.41
2022-08-23T05:05:23.528Z,100617.19
2022-08-23T05:07:51.429Z,100624.34
2022-08-23T05:10:18.960Z,100634.88
2022-08-23T05:12:47.130Z,100625.44
2022-08-23T05:15:15.020Z,100630.66
2022-08-23T05:17:43.949Z,100632.28
2022-08-23T05:20:12.161Z,100640.34
2022-08-23T05:22:42.582Z,100641.41
2022-08-23T05:25:11.101Z,100637.91
2022-08-23T05:27:39.592Z,100634.19
2022-08-23T05:30:08.428Z,100636.88
2022-08-23T05:32:44.534Z,100641.28
2022-08-23T05:35:12.330Z,100638.41
2022-08-23T05:37:40.137Z,100641.88
2022-08-23T05:40:08.325Z,100654.94
2022-08-23T05:42:36.059Z,100650.00
2022-08-23T05:45:06.237Z,100649.97
2022-08-23T05:47:34.493Z,100657.47
2022-08-23T05:50:07.034Z,100665.84
2022-08-23T05:52:35.207Z,100650.38
2022-08-23T05:55:03.020Z,100650.44
2022-08-23T05:57:30.634Z,100652.16
2022-08-23T05:59:58.540Z,100655.78
2022-08-23T06:02:26.145Z,100660.16
2022-08-23T06:04:57.245Z,100660.63
2022-08-23T06:07:26.695Z,100664.69
2022-08-23T06:09:55.494Z,100672.56
2022-08-23T06:12:23.293Z,100672.97
2022-08-23T06:14:51.120Z,100676.38
2022-08-23T06:17:20.472Z,100683.00
2022-08-23T06:19:48.023Z,100678.88
2022-08-23T06:22:15.795Z,100683.88
2022-08-23T06:24:45.057Z,100679.13
2022-08-23T06:27:13.367Z,100682.22
2022-08-23T06:29:41.466Z,100686.78
2022-08-23T06:32:09.316Z,100685.88
2022-08-23T06:34:38.897Z,100677.25
2022-08-23T06:37:11.775Z,100681.13
2022-08-23T06:39:40.216Z,100680.56
2022-08-23T06:42:34.895Z,100685.16
2022-08-23T06:44:59.335Z,100687.44
2022-08-23T06:47:27.144Z,100686.69
2022-08-23T06:49:57.727Z,100686.91
2022-08-23T06:52:27.277Z,100685.66
2022-08-23T06:54:55.178Z,100689.81
2022-08-23T06:57:24.227Z,100682.53
2022-08-23T06:59:52.012Z,100692.38
2022-08-23T07:02:19.706Z,100694.50
2022-08-23T07:04:53.741Z,100696.44
2022-08-23T07:07:21.441Z,100693.13
2022-08-23T07:09:49.056Z,100698.88
2022-08-23T07:12:17.069Z,100692.63
2022-08-23T07:14:46.274Z,100699.59
2022-08-23T07:17:14.507Z,100704.53
2022-08-23T07:19:44.020Z,100712.66
2022-08-23T07:22:12.110Z,100692.25
2022-08-23T07:24:39.833Z,100701.88
2022-08-23T07:27:09.530Z,100703.56
2022-08-23T07:29:39.538Z,100709.34
2022-08-23T07:32:09.770Z,100702.75
2022-08-23T07:34:37.760Z,100709.44
2022-08-23T07:37:15.211Z,100710.41
2022-08-23T07:39:43.951Z,100715.69
2022-08-23T07:42:22.874Z,100711.91
2022-08-23T07:44:52.710Z,100706.41
2022-08-23T07:47:23.310Z,100714.34
2022-08-23T07:49:53.529Z,100719.03
2022-08-23T07:52:21.942Z,100708.81
2022-08-23T07:54:49.777Z,100714.66
2022-08-23T07:57:18.068Z,100715.97
2022-08-23T07:59:45.974Z,100725.13
2022-08-23T08:02:13.882Z,100715.50
2022-08-23T08:04:44.000Z,100716.28
2022-08-23T08:07:19.513Z,100712.34
2022-08-23T08:09:48.514Z,100719.47
2022-08-23T08:12:16.243Z,100719.97
2022-08-23T08:14:44.132Z,100723.28
2022-08-23T08:17:12.462Z,100721.09
2022-08-23T08:19:41.554Z,100722.31
2022-08-23T08:22:13.075Z,100717.97
2022-08-23T08:24:40.990Z,100721.53
2022-08-23T08:27:09.241Z,100723.22
2022-08-23T08:29:37.015Z,100720.81
2022-08-23T08:32:05.446Z,100727.75
2022-08-23T08:34:33.225Z,100715.44
2022-08-23T08:37:01.133Z,100718.97
2022-08-23T08:39:33.917Z,100718.47
2022-08-23T08:42:34.485Z,100726.34
2022-08-23T08:45:05.666Z,100725.25
2022-08-23T08:47:41.776Z,100726.44
2022-08-23T08:50:18.011Z,100719.13
2022-08-23T08:52:50.203Z,100720.09
2022-08-23T08:55:23.429Z,100719.06
2022-08-23T08:57:54.927Z,100722.63
2022-08-23T09:00:26.247Z,100722.88
2022-08-23T09:02:55.502Z,100721.47
2022-08-23T09:05:27.266Z,100729.19
2022-08-23T09:08:06.169Z,100731.81
2022-08-23T09:11:00.185Z,100728.59
2022-08-23T09:13:55.594Z,100727.72
2022-08-23T09:16:33.005Z,100721.06
2022-08-23T09:19:02.523Z,100726.03
2022-08-23T09:21:38.943Z,100714.19
2022-08-23T09:24:06.552Z,100725.47
2022-08-23T09:26:35.808Z,100728.16
2022-08-23T09:29:12.377Z,100719.78
2022-08-23T09:31:43.100Z,100721.03
2022-08-23T09:34:17.191Z,100724.41
2022-08-23T09:36:45.094Z,100720.06
2022-08-23T09:39:30.567Z,100720.81
2022-08-23T09:42:00.731Z,100717.63
2022-08-23T09:44:37.845Z,100711.84
2022-08-23T09:47:11.761Z,100706.22
2022-08-23T09:49:43.951Z,100714.38
2022-08-23T09:52:22.772Z,100714.94
2022-08-23T09:55:01.102Z,100712.72
2022-08-23T09:57:32.657Z,100708.59
2022-08-23T10:00:03.502Z,100711.97
2022-08-23T10:02:35.115Z,100714.31
2022-08-23T10:05:06.285Z,100710.66
2022-08-23T10:07:42.449Z,100710.16
2022-08-23T10:10:26.167Z,100707.03
2022-08-23T10:12:58.984Z,100707.75
2022-08-23T10:15:41.514Z,100712.22
2022-08-23T10:18:18.879Z,100710.44
2022-08-23T10:20:57.802Z,100706.72
2022-08-23T10:23:41.811Z,100700.66
2022-08-23T10:26:14.714Z,100708.81
2022-08-23T10:29:09.528Z,100701.63
2022-08-23T10:31:48.643Z,100706.75
2022-08-23T10:34:30.045Z,100695.78
2022-08-23T10:37:11.565Z,100705.56
2022-08-23T10:39:48.998Z,100699.00
2022-08-23T10:42:27.990Z,100694.94
2022-08-23T10:45:04.898Z,100688.47
2022-08-23T10:47:38.220Z,100691.56
2022-08-23T10:50:09.825Z,100697.69
2022-08-23T10:52:47.230Z,100694.41
2022-08-23T10:55:34.943Z,100695.88
2022-08-23T10:58:06.352Z,100687.50
2022-08-23T11:00:37.774Z,100694.91
2022-08-23T11:03:13.857Z,100686.28
2022-08-23T11:05:43.086Z,100690.66
2022-08-23T11:08:31.406Z,100682.97
2022-08-23T11:10:59.529Z,100684.13
2022-08-23T11:13:30.026Z,100684.63
2022-08-23T11:16:01.878Z,100687.38
2022-08-23T11:18:40.595Z,100682.09
2022-08-23T11:21:30.669Z,100662.88
2022-08-23T11:24:30.786Z,100677.81
2022-08-23T11:27:06.964Z,100667.41
2022-08-23T11:29:40.486Z,100671.38
2022-08-23T11:32:33.210Z,100667.19
2022-08-23T11:35:36.819Z,100667.78
2022-08-23T11:38:07.403Z,100672.00
2022-08-23T11:40:42.743Z,100667.97
2022-08-23T11:43:21.652Z,100675.75
2022-08-23T11:45:49.828Z,100667.22
2022-08-23T11:48:25.974Z,100673.28
2022-08-23T11:51:07.494Z,100671.72
2022-08-23T11:53:56.109Z,100659.25
2022-08-23T11:56:46.406Z,100665.69
2022-08-23T11:59:30.126Z,100656.28
2022-08-23T12:01:59.451Z,100664.09
2022-08-23T12:04:38.946Z,100661.97
2022-08-23T12:07:13.052Z,100659.03
2022-08-23T12:09:57.875Z,100665.88
2022-08-23T12:12:40.069Z,100656.81
2022-08-23T12:15:12.071Z,100658.78
2022-08-23T12:18:08.106Z,100656.53
2022-08-23T12:20:38.467Z,100653.06
2022-08-23T12:23:16.627Z,100647.28
2022-08-23T12:25:44.946Z,100645.53
2022-08-23T12:28:31.464Z,100638.75
2022-08-23T12:31:11.509Z,100647.44
2022-08-23T12:33:52.785Z,100630.44
2022-08-23T12:36:31.086Z,100637.63
2022-08-23T12:39:03.806Z,100648.84
2022-08-23T12:41:36.708Z,100640.22
2022-08-23T12:44:08.838Z,100645.72
2022-08-23T12:46:39.712Z,100641.00
2022-08-23T12:49:09.054Z,100637.69
2022-08-23T12:51:49.536Z,100644.47
2022-08-23T12:54:20.565Z,100638.16
2022-08-23T12:56:50.194Z,100631.72
2022-08-23T12:59:44.806Z,100630.03
2022-08-23T13:02:19.443Z,100636.19
2022-08-23T13:04:47.728Z,100639.19
2022-08-23T13:07:23.124Z,100651.53
2022-08-23T13:09:53.986Z,100645.19
2022-08-23T13:12:24.106Z,100636.31
2022-08-23T13:14:54.468Z,100647.00
2022-08-23T13:17:32.976Z,100642.66
2022-08-23T13:20:18.590Z,100636.94
2022-08-23T13:23:01.227Z,100632.78
2022-08-23T13:25:32.814Z,100630.00
2022-08-23T13:28:03.414Z,100637.47
2022-08-23T13:30:33.729Z,100631.50
2022-08-23T13:33:25.449Z,100637.88
2022-08-23T13:36:13.374Z,100637.97
2022-08-23T13:38:44.360Z,100637.47
2022-08-23T13:41:27.478Z,100619.63
2022-08-23T13:43:55.997Z,100628.91
2022-08-23T13:46:26.594Z,100635.22
2022-08-23T13:49:01.419Z,100636.38
2022-08-23T13:51:31.518Z,100614.28
2022-08-23T13:54:03.442Z,100635.97
2022-08-23T13:56:35.239Z,100622.91
2022-08-23T13:59:06.151Z,100616.28
2022-08-23T14:01:34.093Z,100625.38
2022-08-23T14:04:03.235Z,100629.16
2022-08-23T14:06:31.384Z,100626.16
2022-08-23T14:09:00.406Z,100624.69
2022-08-23T14:11:28.308Z,100619.38
2022-08-23T14:13:56.134Z,100615.53
2022-08-23T14:16:35.259Z,100623.56
2022-08-23T14:19:17.981Z,100627.59
2022-08-23T14:21:56.189Z,100615.41
2022-08-23T14:24:26.956Z,100622.22
2022-08-23T14:26:55.878Z,100622.06
2022-08-23T14:29:24.783Z,100626.13
2022-08-23T14:31:53.095Z,100631.41
2022-08-23T14:34:21.399Z,100625.03
2022-08-23T14:39:40.686Z,100625.03
2022-08-23T14:42:09.338Z,100627.41
2022-08-23T14:44:37.251Z,100619.13
2022-08-23T14:47:05.964Z,100625.34
2022-08-23T14:49:36.987Z,100629.59
2022-08-23T14:52:04.991Z,100624.47
2022-08-23T14:54:33.895Z,100619.25
2022-08-23T14:57:03.105Z,100627.47
2022-08-23T14:59:30.915Z,100624.50
2022-08-23T15:01:59.134Z,100622.25
2022-08-23T15:04:34.430Z,100627.31
2022-08-23T15:07:19.308Z,100619.97
2022-08-23T15:09:47.789Z,100619.44
2022-08-23T15:15:06.589Z,100616.59
2022-08-23T15:17:37.936Z,100626.16
2022-08-23T15:20:07.009Z,100634.41
2022-08-23T15:22:39.975Z,100626.50
2022-08-23T15:25:13.954Z,100628.22
2022-08-23T15:27:44.641Z,100630.56
2022-08-23T15:30:14.450Z,100627.31
2022-08-23T15:32:44.378Z,100625.50
2022-08-23T15:35:20.813Z,100626.63
2022-08-23T15:37:49.621Z,100628.66
2022-08-23T15:40:17.855Z,100629.69
2022-08-23T15:42:47.319Z,100625.38
2022-08-23T15:45:15.232Z,100632.84
2022-08-23T15:47:49.035Z,100613.56
2022-08-23T15:50:20.354Z,100627.97
2022-08-23T15:52:48.262Z,100623.84
2022-08-23T15:55:16.562Z,100622.59
2022-08-23T15:57:49.093Z,100617.09
2022-08-23T16:00:19.793Z,100620.63
2022-08-23T16:03:17.232Z,100615.50
2022-08-23T16:05:37.515Z,100605.59
2022-08-23T16:08:07.337Z,100611.06
2022-08-23T16:10:35.642Z,100613.56
2022-08-23T16:13:04.737Z,100617.06
2022-08-23T16:15:32.473Z,100613.81
2022-08-23T16:18:00.355Z,100615.72
2022-08-23T16:20:28.078Z,100617.91
2022-08-23T16:22:55.995Z,100611.97
2022-08-23T16:25:24.192Z,100622.47
2022-08-23T16:27:51.906Z,100619.13
2022-08-23T16:30:21.121Z,100622.03
2022-08-23T16:32:48.803Z,100616.09
2022-08-23T16:35:17.834Z,100613.19
2022-08-23T16:37:45.554Z,100610.38
2022-08-23T16:40:14.583Z,100619.44
2022-08-23T16:42:42.567Z,100618.78
2022-08-23T16:45:11.478Z,100619.03
2022-08-23T16:47:43.413Z,100617.75
2022-08-23T16:50:13.521Z,100619.34
2022-08-23T16:52:41.350Z,100615.56
2022-08-23T16:55:12.429Z,100613.22
2022-08-23T16:57:40.853Z,100621.81
2022-08-23T17:00:11.848Z,100614.88
2022-08-23T17:02:41.441Z,100614.22
2022-08-23T17:05:12.484Z,100615.94
2022-08-23T17:07:40.376Z,100616.00
2022-08-23T17:10:10.207Z,100624.13
2022-08-23T17:12:40.897Z,100628.34
2022-08-23T17:15:10.821Z,100624.03
2022-08-23T17:17:39.921Z,100618.19
2022-08-23T17:20:08.636Z,100628.69
2022-08-23T17:22:36.347Z,100622.50
2022-08-23T17:25:05.056Z,100634.63
2022-08-23T17:27:33.266Z,100632.22
2022-08-23T17:30:01.282Z,100633.16
2022-08-23T17:32:29.563Z,100635.63
2022-08-23T17:34:58.696Z,100645.13
2022-08-23T17:37:27.105Z,100650.84
2022-08-23T17:39:54.815Z,100640.50
2022-08-23T17:42:22.728Z,100649.38
2022-08-23T17:44:50.444Z,100661.59
2022-08-23T17:47:19.353Z,100650.84
2022-08-23T17:49:49.862Z,100651.41
2022-08-23T17:52:19.372Z,100663.13
2022-08-23T17:54:46.993Z,100657.59
2022-08-23T17:57:14.995Z,100668.19
2022-08-23T17:59:43.709Z,100664.25
2022-08-23T18:02:11.516Z,100666.63
2022-08-23T18:04:39.320Z,100663.22
2022-08-23T18:07:07.441Z,100670.91
2022-08-23T18:09:41.246Z,100673.38
2022-08-23T18:12:16.083Z,100677.00
2022-08-23T18:14:43.871Z,100682.28
2022-08-23T18:17:11.584Z,100675.94
2022-08-23T18:19:39.312Z,100683.97
2022-08-23T18:22:07.003Z,100688.50
2022-08-23T18:24:36.219Z,100691.38
2022-08-23T18:27:21.719Z,100689.00
2022-08-23T18:29:51.511Z,100685.88
2022-08-23T18:32:20.558Z,100695.59
2022-08-23T18:34:48.363Z,100694.00
2022-08-23T18:37:17.264Z,100699.63
2022-08-23T18:39:46.314Z,100706.84
2022-08-23T18:42:14.594Z,100697.66
2022-08-23T18:44:42.446Z,100717.69
2022-08-23T18:47:10.253Z,100717.28
2022-08-23T18:49:38.629Z,100711.69
2022-08-23T18:52:07.442Z,100717.69
2022-08-23T18:54:35.551Z,100721.28
2022-08-23T18:57:05.055Z,100723.69
2022-08-23T18:59:32.967Z,100724.47
2022-08-23T19:02:01.015Z,100734.06
2022-08-23T19:04:30.097Z,100730.84
2022-08-23T19:06:58.310Z,100734.81
2022-08-23T19:09:26.112Z,100734.00
2022-08-23T19:11:53.921Z,100739.56
2022-08-23T19:14:23.044Z,100733.97
2022-08-23T19:16:50.980Z,100745.94
2022-08-23T19:19:19.439Z,100743.91
2022-08-23T19:21:47.173Z,100744.69
2022-08-23T19:24:14.976Z,100750.19
2022-08-23T19:26:47.313Z,100751.34
2022-08-23T19:29:15.952Z,100753.72
2022-08-23T19:31:47.918Z,100754.50
2022-08-23T19:34:16.738Z,100756.84
2022-08-23T19:36:48.326Z,100760.03
2022-08-23T19:39:18.967Z,100760.81
2022-08-23T19:41:48.432Z,100762.78
2022-08-23T19:44:17.677Z,100769.56
2022-08-23T19:46:46.980Z,100768.78
2022-08-23T19:49:15.251Z,100774.03
2022-08-23T19:51:43.773Z,100775.28
2022-08-23T19:54:12.645Z,100770.50
2022-08-23T19:56:43.233Z,100772.06
2022-08-23T19:59:15.179Z,100771.22
2022-08-23T20:01:43.501Z,100778.00
2022-08-23T20:04:12.850Z,100785.63
2022-08-23T20:06:41.467Z,100774.81
2022-08-23T20:09:09.672Z,100779.97
2022-08-23T20:11:37.387Z,100772.75
2022-08-23T20:14:05.915Z,100775.84
2022-08-23T20:16:33.998Z,100783.81
2022-08-23T20:19:02.047Z,100783.72
2022-08-23T20:21:31.130Z,100786.84
2022-08-23T20:24:04.322Z,100792.03
2022-08-23T20:26:34.750Z,100793.94
2022-08-23T20:29:03.143Z,100797.53
2022-08-23T20:31:33.198Z,100795.13
2022-08-23T20:34:01.258Z,100795.53
2022-08-23T20:36:29.292Z,100800.34
2022-08-23T20:39:00.021Z,100792.41
2022-08-23T20:41:28.795Z,100796.69
2022-08-23T20:43:56.653Z,100797.78
2022-08-23T20:46:24.968Z,100803.41
2022-08-23T20:48:53.460Z,100807.84
2022-08-23T20:51:22.265Z,100805.00
2022-08-23T20:53:50.570Z,100803.41
2022-08-23T20:56:20.689Z,100802.53
2022-08-23T20:58:48.423Z,100804.81
2022-08-23T21:01:17.158Z,100806.34
2022-08-23T21:03:45.547Z,100803.13
2022-08-23T21:06:20.152Z,100800.75
2022-08-23T21:08:50.367Z,100803.59
2022-08-23T21:11:23.748Z,100813.53
2022-08-23T21:13:58.633Z,100817.13
2022-08-23T21:16:27.233Z,100815.91
2022-08-23T21:18:56.814Z,100812.69
2022-08-23T21:21:25.301Z,100812.31
2022-08-23T21:23:53.662Z,100814.25
2022-08-23T21:26:23.417Z,100816.91
2022-08-23T21:28:51.926Z,100817.25
2022-08-23T21:31:22.402Z,100815.63
2022-08-23T21:33:50.450Z,100809.69
2022-08-23T21:36:19.088Z,100823.59
2022-08-23T21:38:47.273Z,100813.59
2022-08-23T21:41:34.594Z,100818.28
2022-08-23T21:44:03.959Z,100823.03
2022-08-23T21:46:31.773Z,100821.78
2022-08-23T21:49:00.317Z,100812.94
2022-08-23T21:51:28.230Z,100815.19
2022-08-23T21:53:56.335Z,100808.44
2022-08-23T21:56:24.150Z,100815.47
2022-08-23T21:58:59.160Z,100816.16
2022-08-23T22:01:27.016Z,100812.44
2022-08-23T22:03:57.036Z,100808.66
2022-08-23T22:06:25.590Z,100810.19
2022-08-23T22:08:53.317Z,100808.81
2022-08-23T22:11:22.626Z,100818.69
2022-08-23T22:13:51.530Z,100816.16
2022-08-23T22:16:21.074Z,100818.03
2022-08-23T22:18:49.246Z,100809.56
2022-08-23T22:21:16.957Z,100826.16
2022-08-23T22:23:44.862Z,100815.38
2022-08-23T22:26:14.187Z,100825.41
2022-08-23T22:28:44.590Z,100827.81
2022-08-23T22:31:14.491Z,100823.66
2022-08-23T22:33:45.134Z,100818.78
2022-08-23T22:36:16.446Z,100822.31
2022-08-23T22:38:44.467Z,100827.13
2022-08-23T22:41:15.553Z,100831.03
2022-08-23T22:43:43.354Z,100831.41
2022-08-23T22:46:11.780Z,100823.78
2022-08-23T22:48:45.978Z,100826.94
2022-08-23T22:51:15.106Z,100832.50
2022-08-23T22:53:44.804Z,100824.06
2022-08-23T22:56:14.321Z,100826.56
2022-08-23T22:58:42.023Z,100826.44
2022-08-23T23:01:13.224Z,100827.31
2022-08-23T23:03:41.645Z,100821.00
2022-08-23T23:06:11.830Z,100823.50
2022-08-23T23:08:39.676Z,100825.25
2022-08-23T23:11:10.091Z,100826.28
2022-08-23T23:13:38.838Z,100825.84
2022-08-23T23:16:09.224Z,100832.88
2022-08-23T23:18:37.316Z,100834.81
2022-08-23T23:21:05.118Z,100833.16
2022-08-23T23:23:34.845Z,100826.34
2022-08-23T23:26:03.649Z,100825.44
2022-08-23T23:28:32.102Z,100830.88
2022-08-23T23:30:59.822Z,100833.22
2022-08-23T23:33:27.976Z,100826.66
2022-08-23T23:35:56.991Z,100823.19
2022-08-23T23:38:24.901Z,100825.78
2022-08-23T23:40:54.023Z,100822.75
2022-08-23T23:43:21.717Z,100825.97
2022-08-23T23:45:49.307Z,100823.81
2022-08-23T23:48:24.939Z,100831.28
2022-08-23T23:50:52.662Z,100824.06
2022-08-23T23:53:20.266Z,100835.53
2022-08-23T23:55:48.707Z,100834.56
2022-08-23T23:58:18.083Z,100834.78
